sensor_id;sensor_type;location;lat;lon;timestamp;P1;durP1;ratioP1;P2;durP2;ratioP2
52396;SDS011;38322;53.108;6.308;2024-03-29T06:01:15;3.50;;;0.20;;
52396;SDS011;38322;53.108;6.308;2024-03-29T06:03:41;2.13;;;0.38;;
52396;SDS011;38322;53.108;6.308;2024-03-29T06:06:07;4.07;;;0.63;;
52396;SDS011;38322;53.108;6.308;2024-03-29T06:08:32;3.50;;;0.38;;
52396;SDS011;38322;53.108;6.308;2024-03-29T06:10:59;2.83;;;0.88;;
52396;SDS011;38322;53.108;6.308;2024-03-29T06:13:26;3.40;;;0.30;;
52396;SDS011;38322;53.108;6.308;2024-03-29T06:16:13;2.35;;;0.55;;
52396;SDS011;38322;53.108;6.308;2024-03-29T06:18:57;3.13;;;0.20;;
52396;SDS011;38322;53.108;6.308;2024-03-29T06:21:23;2.35;;;0.20;;
52396;SDS011;38322;53.108;6.308;2024-03-29T06:23:49;2.75;;;0.68;;
52396;SDS011;38322;53.108;6.308;2024-03-29T06:26:14;2.67;;;0.10;;
52396;SDS011;38322;53.108;6.308;2024-03-29T06:28:40;4.82;;;0.50;;
52396;SDS011;38322;53.108;6.308;2024-03-29T06:31:06;0.82;;;0.15;;
52396;SDS011;38322;53.108;6.308;2024-03-29T06:33:32;1.13;;;0.28;;
52396;SDS011;38322;53.108;6.308;2024-03-29T06:35:58;2.38;;;0.10;;
52396;SDS011;38322;53.108;6.308;2024-03-29T06:38:23;3.28;;;0.20;;
52396;SDS011;38322;53.108;6.308;2024-03-29T06:40:49;1.75;;;0.40;;
52396;SDS011;38322;53.108;6.308;2024-03-29T06:43:15;0.80;;;0.10;;
52396;SDS011;38322;53.108;6.308;2024-03-29T06:45:41;5.18;;;0.40;;
52396;SDS011;38322;53.108;6.308;2024-03-29T06:48:08;6.65;;;0.22;;
52396;SDS011;38322;53.108;6.308;2024-03-29T06:50:34;1.00;;;0.00;;
52396;SDS011;38322;53.108;6.308;2024-03-29T06:53:00;4.18;;;1.05;;
52396;SDS011;38322;53.108;6.308;2024-03-29T06:55:26;2.13;;;0.55;;
52396;SDS011;38322;53.108;6.308;2024-03-29T06:57:52;1.17;;;0.20;;
52396;SDS011;38322;53.108;6.308;2024-03-29T07:00:18;0.70;;;0.10;;
52396;SDS011;38322;53.108;6.308;2024-03-29T07:02:44;0.55;;;0.10;;
52396;SDS011;38322;53.108;6.308;2024-03-29T07:05:10;2.50;;;0.10;;
52396;SDS011;38322;53.108;6.308;2024-03-29T07:07:37;0.40;;;0.20;;
52396;SDS011;38322;53.108;6.308;2024-03-29T07:10:05;0.98;;;0.10;;
52396;SDS011;38322;53.108;6.308;2024-03-29T07:12:31;2.08;;;0.90;;
52396;SDS011;38322;53.108;6.308;2024-03-29T07:14:57;0.68;;;0.00;;
52396;SDS011;38322;53.108;6.308;2024-03-29T07:17:23;1.15;;;0.50;;
52396;SDS011;38322;53.108;6.308;2024-03-29T07:19:49;1.90;;;0.10;;
52396;SDS011;38322;53.108;6.308;2024-03-29T07:22:15;1.35;;;0.05;;
52396;SDS011;38322;53.108;6.308;2024-03-29T07:24:41;3.40;;;0.10;;
52396;SDS011;38322;53.108;6.308;2024-03-29T07:27:07;2.70;;;0.40;;
52396;SDS011;38322;53.108;6.308;2024-03-29T07:29:33;0.60;;;0.10;;
52396;SDS011;38322;53.108;6.308;2024-03-29T07:31:59;0.95;;;0.20;;
52396;SDS011;38322;53.108;6.308;2024-03-29T07:34:26;3.33;;;0.08;;
52396;SDS011;38322;53.108;6.308;2024-03-29T07:36:51;2.30;;;0.17;;
52396;SDS011;38322;53.108;6.308;2024-03-29T07:39:17;1.33;;;0.40;;
52396;SDS011;38322;53.108;6.308;2024-03-29T07:41:43;6.93;;;0.32;;
52396;SDS011;38322;53.108;6.308;2024-03-29T07:44:10;1.35;;;0.10;;
52396;SDS011;38322;53.108;6.308;2024-03-29T07:46:36;1.00;;;0.13;;
52396;SDS011;38322;53.108;6.308;2024-03-29T07:49:04;3.20;;;0.20;;
52396;SDS011;38322;53.108;6.308;2024-03-29T07:51:30;2.20;;;0.10;;
52396;SDS011;38322;53.108;6.308;2024-03-29T07:53:56;0.50;;;0.20;;
52396;SDS011;38322;53.108;6.308;2024-03-29T07:56:22;4.32;;;0.75;;
52396;SDS011;38322;53.108;6.308;2024-03-29T07:58:50;1.08;;;0.10;;
52396;SDS011;38322;53.108;6.308;2024-03-29T08:01:18;1.85;;;0.10;;
52396;SDS011;38322;53.108;6.308;2024-03-29T08:03:45;0.60;;;0.10;;
52396;SDS011;38322;53.108;6.308;2024-03-29T08:06:11;3.92;;;0.52;;
52396;SDS011;38322;53.108;6.308;2024-03-29T08:08:37;1.85;;;0.20;;
52396;SDS011;38322;53.108;6.308;2024-03-29T08:11:03;2.20;;;0.10;;
52396;SDS011;38322;53.108;6.308;2024-03-29T08:13:29;1.65;;;0.10;;
52396;SDS011;38322;53.108;6.308;2024-03-29T08:15:57;1.25;;;0.10;;
52396;SDS011;38322;53.108;6.308;2024-03-29T08:18:24;0.70;;;0.10;;
52396;SDS011;38322;53.108;6.308;2024-03-29T08:20:50;1.05;;;0.70;;
52396;SDS011;38322;53.108;6.308;2024-03-29T08:23:16;1.13;;;0.10;;
52396;SDS011;38322;53.108;6.308;2024-03-29T08:25:42;0.70;;;0.28;;
52396;SDS011;38322;53.108;6.308;2024-03-29T08:28:08;3.13;;;0.20;;
52396;SDS011;38322;53.108;6.308;2024-03-29T08:30:34;3.60;;;0.85;;
52396;SDS011;38322;53.108;6.308;2024-03-29T08:33:01;0.95;;;0.10;;
52396;SDS011;38322;53.108;6.308;2024-03-29T08:35:29;1.05;;;0.20;;
52396;SDS011;38322;53.108;6.308;2024-03-29T08:37:55;0.30;;;0.30;;
52396;SDS011;38322;53.108;6.308;2024-03-29T08:40:21;3.13;;;0.20;;
52396;SDS011;38322;53.108;6.308;2024-03-29T08:42:47;0.82;;;0.10;;
52396;SDS011;38322;53.108;6.308;2024-03-29T08:45:13;0.95;;;0.10;;
52396;SDS011;38322;53.108;6.308;2024-03-29T08:47:39;2.28;;;0.10;;
52396;SDS011;38322;53.108;6.308;2024-03-29T08:50:05;0.45;;;0.17;;
52396;SDS011;38322;53.108;6.308;2024-03-29T08:52:31;1.45;;;0.20;;
52396;SDS011;38322;53.108;6.308;2024-03-29T08:54:57;1.02;;;0.10;;
52396;SDS011;38322;53.108;6.308;2024-03-29T08:57:23;2.42;;;0.22;;
52396;SDS011;38322;53.108;6.308;2024-03-29T08:59:49;1.23;;;0.43;;
52396;SDS011;38322;53.108;6.308;2024-03-29T09:02:15;0.17;;;0.10;;
52396;SDS011;38322;53.108;6.308;2024-03-29T09:04:41;2.53;;;1.40;;
52396;SDS011;38322;53.108;6.308;2024-03-29T09:07:07;2.15;;;0.10;;
52396;SDS011;38322;53.108;6.308;2024-03-29T09:09:33;2.47;;;0.17;;
52396;SDS011;38322;53.108;6.308;2024-03-29T09:11:59;0.45;;;0.10;;
52396;SDS011;38322;53.108;6.308;2024-03-29T09:14:25;2.83;;;0.22;;
52396;SDS011;38322;53.108;6.308;2024-03-29T09:16:52;0.73;;;0.10;;
52396;SDS011;38322;53.108;6.308;2024-03-29T09:19:17;0.52;;;0.10;;
52396;SDS011;38322;53.108;6.308;2024-03-29T09:21:44;1.40;;;0.30;;
52396;SDS011;38322;53.108;6.308;2024-03-29T09:24:11;0.30;;;0.10;;
52396;SDS011;38322;53.108;6.308;2024-03-29T09:26:37;0.95;;;0.10;;
52396;SDS011;38322;53.108;6.308;2024-03-29T09:29:02;0.75;;;0.22;;
52396;SDS011;38322;53.108;6.308;2024-03-29T09:31:29;0.85;;;0.10;;
52396;SDS011;38322;53.108;6.308;2024-03-29T09:33:55;1.20;;;0.15;;
52396;SDS011;38322;53.108;6.308;2024-03-29T09:36:22;0.90;;;0.10;;
52396;SDS011;38322;53.108;6.308;2024-03-29T09:38:49;0.38;;;0.10;;
52396;SDS011;38322;53.108;6.308;2024-03-29T09:41:16;0.95;;;0.35;;
52396;SDS011;38322;53.108;6.308;2024-03-29T09:43:45;0.30;;;0.20;;
52396;SDS011;38322;53.108;6.308;2024-03-29T09:46:13;1.40;;;0.20;;
52396;SDS011;38322;53.108;6.308;2024-03-29T09:48:40;2.92;;;0.20;;
52396;SDS011;38322;53.108;6.308;2024-03-29T09:51:07;1.15;;;0.10;;
52396;SDS011;38322;53.108;6.308;2024-03-29T09:53:34;1.73;;;0.40;;
52396;SDS011;38322;53.108;6.308;2024-03-29T09:56:02;0.35;;;0.10;;
52396;SDS011;38322;53.108;6.308;2024-03-29T09:58:30;0.55;;;0.20;;
52396;SDS011;38322;53.108;6.308;2024-03-29T10:00:57;1.80;;;0.35;;
52396;SDS011;38322;53.108;6.308;2024-03-29T10:03:24;0.90;;;0.43;;
52396;SDS011;38322;53.108;6.308;2024-03-29T10:05:56;1.00;;;0.20;;
52396;SDS011;38322;53.108;6.308;2024-03-29T10:08:26;0.28;;;0.00;;
52396;SDS011;38322;53.108;6.308;2024-03-29T10:10:53;1.45;;;0.10;;
52396;SDS011;38322;53.108;6.308;2024-03-29T10:13:20;1.63;;;0.15;;
52396;SDS011;38322;53.108;6.308;2024-03-29T10:15:46;2.33;;;0.10;;
52396;SDS011;38322;53.108;6.308;2024-03-29T10:18:15;0.32;;;0.10;;
52396;SDS011;38322;53.108;6.308;2024-03-29T10:20:43;1.52;;;0.20;;
52396;SDS011;38322;53.108;6.308;2024-03-29T10:23:09;0.20;;;0.00;;
52396;SDS011;38322;53.108;6.308;2024-03-29T10:25:34;1.70;;;0.10;;
52396;SDS011;38322;53.108;6.308;2024-03-29T10:28:00;1.60;;;0.00;;
52396;SDS011;38322;53.108;6.308;2024-03-29T10:30:28;1.15;;;0.20;;
52396;SDS011;38322;53.108;6.308;2024-03-29T10:32:56;0.35;;;0.35;;
52396;SDS011;38322;53.108;6.308;2024-03-29T10:35:22;1.42;;;0.17;;
52396;SDS011;38322;53.108;6.308;2024-03-29T10:37:51;0.95;;;0.30;;
52396;SDS011;38322;53.108;6.308;2024-03-29T10:40:19;0.88;;;0.10;;
52396;SDS011;38322;53.108;6.308;2024-03-29T10:42:47;0.43;;;0.15;;
52396;SDS011;38322;53.108;6.308;2024-03-29T10:45:14;0.43;;;0.10;;
52396;SDS011;38322;53.108;6.308;2024-03-29T10:47:42;0.30;;;0.10;;
52396;SDS011;38322;53.108;6.308;2024-03-29T10:50:10;1.63;;;0.17;;
52396;SDS011;38322;53.108;6.308;2024-03-29T10:52:37;0.52;;;0.10;;
52396;SDS011;38322;53.108;6.308;2024-03-29T10:55:11;0.65;;;0.10;;
52396;SDS011;38322;53.108;6.308;2024-03-29T11:05:14;0.60;;;0.15;;
52396;SDS011;38322;53.108;6.308;2024-03-29T11:07:41;1.02;;;0.10;;
52396;SDS011;38322;53.108;6.308;2024-03-29T11:10:11;0.32;;;0.10;;
52396;SDS011;38322;53.108;6.308;2024-03-29T11:12:47;3.80;;;0.30;;
52396;SDS011;38322;53.108;6.308;2024-03-29T11:15:27;0.70;;;0.47;;
52396;SDS011;38322;53.108;6.308;2024-03-29T11:17:55;0.98;;;0.20;;
52396;SDS011;38322;53.108;6.308;2024-03-29T11:20:23;1.42;;;0.17;;
52396;SDS011;38322;53.108;6.308;2024-03-29T11:22:59;1.45;;;0.10;;
52396;SDS011;38322;53.108;6.308;2024-03-29T11:25:41;1.85;;;0.10;;
52396;SDS011;38322;53.108;6.308;2024-03-29T11:28:11;0.40;;;0.28;;
52396;SDS011;38322;53.108;6.308;2024-03-29T11:30:40;2.15;;;0.10;;
52396;SDS011;38322;53.108;6.308;2024-03-29T11:33:07;0.50;;;0.17;;
52396;SDS011;38322;53.108;6.308;2024-03-29T11:35:38;0.70;;;0.10;;
52396;SDS011;38322;53.108;6.308;2024-03-29T11:38:05;1.30;;;0.10;;
52396;SDS011;38322;53.108;6.308;2024-03-29T11:40:31;3.40;;;0.40;;
52396;SDS011;38322;53.108;6.308;2024-03-29T11:42:57;0.93;;;0.03;;
52396;SDS011;38322;53.108;6.308;2024-03-29T11:45:24;0.95;;;0.40;;
52396;SDS011;38322;53.108;6.308;2024-03-29T11:47:54;0.40;;;0.20;;
52396;SDS011;38322;53.108;6.308;2024-03-29T11:50:21;1.52;;;0.20;;
52396;SDS011;38322;53.108;6.308;2024-03-29T11:52:46;0.30;;;0.25;;
52396;SDS011;38322;53.108;6.308;2024-03-29T11:55:12;0.70;;;0.17;;
52396;SDS011;38322;53.108;6.308;2024-03-29T11:57:40;0.47;;;0.10;;
52396;SDS011;38322;53.108;6.308;2024-03-29T12:00:06;2.50;;;0.90;;
52396;SDS011;38322;53.108;6.308;2024-03-29T12:02:33;2.28;;;0.20;;
52396;SDS011;38322;53.108;6.308;2024-03-29T12:05:05;1.30;;;0.20;;
52396;SDS011;38322;53.108;6.308;2024-03-29T12:07:33;0.25;;;0.10;;
52396;SDS011;38322;53.108;6.308;2024-03-29T12:09:59;2.20;;;0.20;;
52396;SDS011;38322;53.108;6.308;2024-03-29T12:12:25;1.80;;;0.20;;
52396;SDS011;38322;53.108;6.308;2024-03-29T12:14:51;0.63;;;0.25;;
52396;SDS011;38322;53.108;6.308;2024-03-29T12:17:17;0.43;;;0.20;;
52396;SDS011;38322;53.108;6.308;2024-03-29T12:19:43;1.05;;;0.25;;
52396;SDS011;38322;53.108;6.308;2024-03-29T12:22:10;0.85;;;0.10;;
52396;SDS011;38322;53.108;6.308;2024-03-29T12:24:36;3.75;;;0.30;;
52396;SDS011;38322;53.108;6.308;2024-03-29T12:27:02;0.60;;;0.30;;
52396;SDS011;38322;53.108;6.308;2024-03-29T12:29:29;1.23;;;0.40;;
52396;SDS011;38322;53.108;6.308;2024-03-29T12:31:58;0.80;;;0.20;;
52396;SDS011;38322;53.108;6.308;2024-03-29T12:34:25;0.63;;;0.20;;
52396;SDS011;38322;53.108;6.308;2024-03-29T12:36:51;3.53;;;0.85;;
52396;SDS011;38322;53.108;6.308;2024-03-29T12:39:16;0.38;;;0.10;;
52396;SDS011;38322;53.108;6.308;2024-03-29T12:41:42;1.15;;;0.25;;
52396;SDS011;38322;53.108;6.308;2024-03-29T12:44:09;1.60;;;0.20;;
52396;SDS011;38322;53.108;6.308;2024-03-29T12:46:36;1.00;;;0.10;;
52396;SDS011;38322;53.108;6.308;2024-03-29T12:49:02;0.63;;;0.20;;
52396;SDS011;38322;53.108;6.308;2024-03-29T12:51:28;1.35;;;0.13;;
52396;SDS011;38322;53.108;6.308;2024-03-29T12:53:55;2.25;;;0.20;;
52396;SDS011;38322;53.108;6.308;2024-03-29T12:56:25;1.65;;;0.35;;
52396;SDS011;38322;53.108;6.308;2024-03-29T12:58:52;0.90;;;0.50;;
52396;SDS011;38322;53.108;6.308;2024-03-29T13:01:18;1.60;;;0.50;;
52396;SDS011;38322;53.108;6.308;2024-03-29T13:03:44;1.75;;;0.20;;
52396;SDS011;38322;53.108;6.308;2024-03-29T13:06:09;1.48;;;0.10;;
52396;SDS011;38322;53.108;6.308;2024-03-29T13:08:35;0.63;;;0.13;;
52396;SDS011;38322;53.108;6.308;2024-03-29T13:11:01;0.75;;;0.30;;
52396;SDS011;38322;53.108;6.308;2024-03-29T13:13:27;0.85;;;0.10;;
52396;SDS011;38322;53.108;6.308;2024-03-29T13:15:53;4.32;;;0.30;;
52396;SDS011;38322;53.108;6.308;2024-03-29T13:18:19;1.20;;;0.28;;
52396;SDS011;38322;53.108;6.308;2024-03-29T13:20:45;0.80;;;0.38;;
52396;SDS011;38322;53.108;6.308;2024-03-29T13:23:11;3.40;;;0.30;;
52396;SDS011;38322;53.108;6.308;2024-03-29T13:25:37;1.15;;;0.20;;
52396;SDS011;38322;53.108;6.308;2024-03-29T13:28:04;1.30;;;0.17;;
52396;SDS011;38322;53.108;6.308;2024-03-29T13:30:32;2.78;;;0.20;;
52396;SDS011;38322;53.108;6.308;2024-03-29T13:32:58;1.70;;;0.30;;
52396;SDS011;38322;53.108;6.308;2024-03-29T13:35:24;1.52;;;0.47;;
52396;SDS011;38322;53.108;6.308;2024-03-29T13:37:51;1.17;;;0.25;;
52396;SDS011;38322;53.108;6.308;2024-03-29T13:40:21;1.63;;;0.32;;
52396;SDS011;38322;53.108;6.308;2024-03-29T13:42:47;2.70;;;0.52;;
52396;SDS011;38322;53.108;6.308;2024-03-29T13:45:14;1.23;;;0.25;;
52396;SDS011;38322;53.108;6.308;2024-03-29T13:47:41;0.80;;;0.20;;
52396;SDS011;38322;53.108;6.308;2024-03-29T13:50:08;0.90;;;0.30;;
52396;SDS011;38322;53.108;6.308;2024-03-29T13:52:36;0.65;;;0.10;;
52396;SDS011;38322;53.108;6.308;2024-03-29T13:55:03;1.13;;;0.30;;
52396;SDS011;38322;53.108;6.308;2024-03-29T13:57:30;1.45;;;0.20;;
52396;SDS011;38322;53.108;6.308;2024-03-29T13:59:56;1.48;;;0.20;;
52396;SDS011;38322;53.108;6.308;2024-03-29T14:02:23;0.63;;;0.20;;
52396;SDS011;38322;53.108;6.308;2024-03-29T14:04:51;1.00;;;0.20;;
52396;SDS011;38322;53.108;6.308;2024-03-29T14:07:17;2.50;;;1.45;;
52396;SDS011;38322;53.108;6.308;2024-03-29T14:09:43;1.10;;;0.20;;
52396;SDS011;38322;53.108;6.308;2024-03-29T14:12:10;0.50;;;0.17;;
52396;SDS011;38322;53.108;6.308;2024-03-29T14:14:37;0.52;;;0.20;;
52396;SDS011;38322;53.108;6.308;2024-03-29T14:17:03;0.55;;;0.20;;
52396;SDS011;38322;53.108;6.308;2024-03-29T14:19:31;2.97;;;0.10;;
52396;SDS011;38322;53.108;6.308;2024-03-29T14:21:59;0.75;;;0.30;;
52396;SDS011;38322;53.108;6.308;2024-03-29T14:24:25;0.75;;;0.10;;
52396;SDS011;38322;53.108;6.308;2024-03-29T14:26:52;0.98;;;0.13;;
52396;SDS011;38322;53.108;6.308;2024-03-29T14:29:18;1.33;;;0.47;;
52396;SDS011;38322;53.108;6.308;2024-03-29T14:31:47;3.20;;;0.20;;
52396;SDS011;38322;53.108;6.308;2024-03-29T14:34:13;0.70;;;0.20;;
52396;SDS011;38322;53.108;6.308;2024-03-29T14:36:40;1.48;;;0.20;;
52396;SDS011;38322;53.108;6.308;2024-03-29T14:39:06;1.90;;;0.43;;
52396;SDS011;38322;53.108;6.308;2024-03-29T14:41:32;2.03;;;0.50;;
52396;SDS011;38322;53.108;6.308;2024-03-29T14:44:01;1.65;;;0.52;;
52396;SDS011;38322;53.108;6.308;2024-03-29T14:46:28;1.25;;;0.52;;
52396;SDS011;38322;53.108;6.308;2024-03-29T14:48:53;1.20;;;0.60;;
52396;SDS011;38322;53.108;6.308;2024-03-29T14:51:19;1.05;;;0.40;;
52396;SDS011;38322;53.108;6.308;2024-03-29T14:53:46;2.03;;;0.70;;
52396;SDS011;38322;53.108;6.308;2024-03-29T14:56:15;1.40;;;0.63;;
52396;SDS011;38322;53.108;6.308;2024-03-29T14:58:42;2.35;;;0.50;;
52396;SDS011;38322;53.108;6.308;2024-03-29T15:01:08;1.58;;;0.40;;
52396;SDS011;38322;53.108;6.308;2024-03-29T15:03:34;0.82;;;0.40;;
52396;SDS011;38322;53.108;6.308;2024-03-29T15:06:00;1.15;;;0.50;;
52396;SDS011;38322;53.108;6.308;2024-03-29T15:08:26;1.15;;;0.45;;
52396;SDS011;38322;53.108;6.308;2024-03-29T15:10:56;2.35;;;0.68;;
52396;SDS011;38322;53.108;6.308;2024-03-29T15:13:23;2.55;;;0.40;;
52396;SDS011;38322;53.108;6.308;2024-03-29T15:15:53;2.67;;;0.55;;
52396;SDS011;38322;53.108;6.308;2024-03-29T15:18:21;3.28;;;1.02;;
52396;SDS011;38322;53.108;6.308;2024-03-29T15:20:55;1.00;;;0.30;;
52396;SDS011;38322;53.108;6.308;2024-03-29T15:23:22;0.93;;;0.20;;
52396;SDS011;38322;53.108;6.308;2024-03-29T15:25:50;2.53;;;0.40;;
52396;SDS011;38322;53.108;6.308;2024-03-29T15:28:17;3.13;;;1.10;;
52396;SDS011;38322;53.108;6.308;2024-03-29T15:31:11;4.28;;;0.50;;
52396;SDS011;38322;53.108;6.308;2024-03-29T15:33:46;0.75;;;0.20;;
52396;SDS011;38322;53.108;6.308;2024-03-29T15:36:18;1.55;;;0.63;;
52396;SDS011;38322;53.108;6.308;2024-03-29T15:38:47;1.52;;;0.25;;
52396;SDS011;38322;53.108;6.308;2024-03-29T15:41:16;1.27;;;0.30;;
52396;SDS011;38322;53.108;6.308;2024-03-29T15:43:43;0.43;;;0.40;;
52396;SDS011;38322;53.108;6.308;2024-03-29T15:46:10;1.15;;;0.20;;
52396;SDS011;38322;53.108;6.308;2024-03-29T15:48:37;0.63;;;0.35;;
52396;SDS011;38322;53.108;6.308;2024-03-29T15:51:04;0.93;;;0.40;;
52396;SDS011;38322;53.108;6.308;2024-03-29T15:53:30;0.95;;;0.38;;
52396;SDS011;38322;53.108;6.308;2024-03-29T15:55:56;0.30;;;0.30;;
52396;SDS011;38322;53.108;6.308;2024-03-29T15:58:23;3.03;;;0.40;;
52396;SDS011;38322;53.108;6.308;2024-03-29T16:00:49;0.85;;;0.40;;
52396;SDS011;38322;53.108;6.308;2024-03-29T16:03:16;1.17;;;0.65;;
52396;SDS011;38322;53.108;6.308;2024-03-29T16:05:43;1.85;;;0.40;;
52396;SDS011;38322;53.108;6.308;2024-03-29T16:08:10;1.08;;;0.55;;
52396;SDS011;38322;53.108;6.308;2024-03-29T16:13:23;2.50;;;0.57;;
52396;SDS011;38322;53.108;6.308;2024-03-29T16:15:51;1.15;;;0.60;;
52396;SDS011;38322;53.108;6.308;2024-03-29T16:18:19;1.60;;;0.80;;
52396;SDS011;38322;53.108;6.308;2024-03-29T16:20:45;1.88;;;0.80;;
52396;SDS011;38322;53.108;6.308;2024-03-29T16:23:11;1.45;;;0.70;;
52396;SDS011;38322;53.108;6.308;2024-03-29T16:25:38;1.75;;;1.13;;
52396;SDS011;38322;53.108;6.308;2024-03-29T16:28:06;1.10;;;0.82;;
52396;SDS011;38322;53.108;6.308;2024-03-29T16:30:35;3.85;;;1.20;;
52396;SDS011;38322;53.108;6.308;2024-03-29T16:33:03;2.97;;;0.63;;
52396;SDS011;38322;53.108;6.308;2024-03-29T16:35:30;2.78;;;0.75;;
52396;SDS011;38322;53.108;6.308;2024-03-29T16:37:56;1.50;;;1.05;;
52396;SDS011;38322;53.108;6.308;2024-03-29T16:40:22;1.42;;;0.70;;
52396;SDS011;38322;53.108;6.308;2024-03-29T16:42:48;3.17;;;1.23;;
52396;SDS011;38322;53.108;6.308;2024-03-29T16:45:14;2.05;;;1.08;;
52396;SDS011;38322;53.108;6.308;2024-03-29T16:47:40;2.60;;;1.40;;
52396;SDS011;38322;53.108;6.308;2024-03-29T16:50:06;1.92;;;1.15;;
52396;SDS011;38322;53.108;6.308;2024-03-29T16:52:33;1.80;;;0.93;;
52396;SDS011;38322;53.108;6.308;2024-03-29T16:54:59;1.52;;;1.00;;
52396;SDS011;38322;53.108;6.308;2024-03-29T16:57:25;1.92;;;0.63;;
52396;SDS011;38322;53.108;6.308;2024-03-29T16:59:51;1.25;;;1.15;;
52396;SDS011;38322;53.108;6.308;2024-03-29T17:02:17;1.20;;;0.95;;
52396;SDS011;38322;53.108;6.308;2024-03-29T17:04:43;1.67;;;1.25;;
52396;SDS011;38322;53.108;6.308;2024-03-29T17:07:13;2.10;;;1.80;;
52396;SDS011;38322;53.108;6.308;2024-03-29T17:09:39;3.63;;;0.95;;
52396;SDS011;38322;53.108;6.308;2024-03-29T17:12:06;0.98;;;0.80;;
52396;SDS011;38322;53.108;6.308;2024-03-29T17:14:33;2.25;;;1.75;;
52396;SDS011;38322;53.108;6.308;2024-03-29T17:16:59;2.03;;;1.30;;
52396;SDS011;38322;53.108;6.308;2024-03-29T17:19:29;2.85;;;1.58;;
52396;SDS011;38322;53.108;6.308;2024-03-29T17:21:56;2.20;;;1.42;;
52396;SDS011;38322;53.108;6.308;2024-03-29T17:24:22;1.90;;;1.23;;
52396;SDS011;38322;53.108;6.308;2024-03-29T17:26:48;2.53;;;1.35;;
52396;SDS011;38322;53.108;6.308;2024-03-29T17:29:14;1.30;;;1.17;;
52396;SDS011;38322;53.108;6.308;2024-03-29T17:31:41;2.17;;;1.30;;
52396;SDS011;38322;53.108;6.308;2024-03-29T17:34:08;1.58;;;1.25;;
52396;SDS011;38322;53.108;6.308;2024-03-29T17:36:35;4.85;;;1.60;;
52396;SDS011;38322;53.108;6.308;2024-03-29T17:39:01;2.05;;;1.48;;
52396;SDS011;38322;53.108;6.308;2024-03-29T17:41:28;7.45;;;1.70;;
52396;SDS011;38322;53.108;6.308;2024-03-29T17:43:55;1.90;;;1.50;;
52396;SDS011;38322;53.108;6.308;2024-03-29T17:46:21;2.13;;;1.27;;
52396;SDS011;38322;53.108;6.308;2024-03-29T17:48:47;4.72;;;1.55;;
52396;SDS011;38322;53.108;6.308;2024-03-29T17:51:13;3.80;;;1.80;;
52396;SDS011;38322;53.108;6.308;2024-03-29T17:53:39;3.05;;;1.48;;
52396;SDS011;38322;53.108;6.308;2024-03-29T17:56:06;3.97;;;2.13;;
52396;SDS011;38322;53.108;6.308;2024-03-29T17:58:32;4.22;;;1.98;;
52396;SDS011;38322;53.108;6.308;2024-03-29T18:00:58;4.97;;;3.95;;
52396;SDS011;38322;53.108;6.308;2024-03-29T18:03:23;5.82;;;3.92;;
52396;SDS011;38322;53.108;6.308;2024-03-29T18:05:49;3.42;;;3.13;;
52396;SDS011;38322;53.108;6.308;2024-03-29T18:08:15;6.57;;;4.03;;
52396;SDS011;38322;53.108;6.308;2024-03-29T18:10:41;4.55;;;3.33;;
52396;SDS011;38322;53.108;6.308;2024-03-29T18:13:07;5.95;;;3.28;;
52396;SDS011;38322;53.108;6.308;2024-03-29T18:15:33;3.85;;;3.35;;
52396;SDS011;38322;53.108;6.308;2024-03-29T18:18:03;3.92;;;2.42;;
52396;SDS011;38322;53.108;6.308;2024-03-29T18:20:29;4.07;;;3.28;;
52396;SDS011;38322;53.108;6.308;2024-03-29T18:22:55;4.85;;;2.63;;
52396;SDS011;38322;53.108;6.308;2024-03-29T18:25:21;7.75;;;3.58;;
52396;SDS011;38322;53.108;6.308;2024-03-29T18:27:47;6.68;;;2.55;;
52396;SDS011;38322;53.108;6.308;2024-03-29T18:30:13;4.07;;;2.65;;
52396;SDS011;38322;53.108;6.308;2024-03-29T18:32:39;4.72;;;2.67;;
52396;SDS011;38322;53.108;6.308;2024-03-29T18:35:05;1.70;;;1.60;;
52396;SDS011;38322;53.108;6.308;2024-03-29T18:37:31;2.90;;;1.80;;
52396;SDS011;38322;53.108;6.308;2024-03-29T18:39:57;3.67;;;2.00;;
52396;SDS011;38322;53.108;6.308;2024-03-29T18:42:23;3.72;;;2.13;;
52396;SDS011;38322;53.108;6.308;2024-03-29T18:44:51;6.90;;;3.08;;
52396;SDS011;38322;53.108;6.308;2024-03-29T18:47:17;7.25;;;3.25;;
52396;SDS011;38322;53.108;6.308;2024-03-29T18:49:43;5.68;;;3.38;;
52396;SDS011;38322;53.108;6.308;2024-03-29T18:52:10;4.72;;;3.03;;
52396;SDS011;38322;53.108;6.308;2024-03-29T18:54:36;7.78;;;3.33;;
52396;SDS011;38322;53.108;6.308;2024-03-29T18:57:02;7.20;;;2.40;;
52396;SDS011;38322;53.108;6.308;2024-03-29T18:59:29;5.57;;;3.17;;
52396;SDS011;38322;53.108;6.308;2024-03-29T19:01:55;3.42;;;2.42;;
52396;SDS011;38322;53.108;6.308;2024-03-29T19:04:22;4.97;;;3.47;;
52396;SDS011;38322;53.108;6.308;2024-03-29T19:06:50;3.28;;;2.97;;
52396;SDS011;38322;53.108;6.308;2024-03-29T19:09:16;5.82;;;2.88;;
52396;SDS011;38322;53.108;6.308;2024-03-29T19:11:42;9.00;;;3.28;;
52396;SDS011;38322;53.108;6.308;2024-03-29T19:14:13;3.30;;;1.88;;
52396;SDS011;38322;53.108;6.308;2024-03-29T19:16:39;3.83;;;2.45;;
52396;SDS011;38322;53.108;6.308;2024-03-29T19:19:05;3.50;;;2.53;;
52396;SDS011;38322;53.108;6.308;2024-03-29T19:21:31;4.88;;;2.25;;
52396;SDS011;38322;53.108;6.308;2024-03-29T19:24:00;2.60;;;2.10;;
52396;SDS011;38322;53.108;6.308;2024-03-29T19:26:26;4.45;;;1.83;;
52396;SDS011;38322;53.108;6.308;2024-03-29T19:28:57;2.75;;;2.15;;
52396;SDS011;38322;53.108;6.308;2024-03-29T19:31:23;3.13;;;2.35;;
52396;SDS011;38322;53.108;6.308;2024-03-29T19:33:49;3.63;;;2.20;;
52396;SDS011;38322;53.108;6.308;2024-03-29T19:36:15;3.65;;;2.72;;
52396;SDS011;38322;53.108;6.308;2024-03-29T19:38:41;9.13;;;2.60;;
52396;SDS011;38322;53.108;6.308;2024-03-29T19:41:07;9.20;;;6.22;;
52396;SDS011;38322;53.108;6.308;2024-03-29T19:43:33;9.02;;;4.60;;
52396;SDS011;38322;53.108;6.308;2024-03-29T19:46:00;6.25;;;3.10;;
52396;SDS011;38322;53.108;6.308;2024-03-29T19:48:27;8.48;;;3.13;;
52396;SDS011;38322;53.108;6.308;2024-03-29T19:50:52;4.00;;;2.42;;
52396;SDS011;38322;53.108;6.308;2024-03-29T19:53:18;3.28;;;2.20;;
52396;SDS011;38322;53.108;6.308;2024-03-29T19:55:47;7.80;;;3.17;;
52396;SDS011;38322;53.108;6.308;2024-03-29T19:58:13;6.15;;;2.67;;
52396;SDS011;38322;53.108;6.308;2024-03-29T20:00:39;2.63;;;2.40;;
52396;SDS011;38322;53.108;6.308;2024-03-29T20:03:07;7.03;;;2.80;;
52396;SDS011;38322;53.108;6.308;2024-03-29T20:05:37;6.50;;;3.58;;
52396;SDS011;38322;53.108;6.308;2024-03-29T20:08:03;5.63;;;2.15;;
52396;SDS011;38322;53.108;6.308;2024-03-29T20:10:37;6.82;;;2.40;;
52396;SDS011;38322;53.108;6.308;2024-03-29T20:13:06;3.70;;;1.88;;
52396;SDS011;38322;53.108;6.308;2024-03-29T20:15:39;4.03;;;1.90;;
52396;SDS011;38322;53.108;6.308;2024-03-29T20:18:07;5.18;;;2.22;;
52396;SDS011;38322;53.108;6.308;2024-03-29T20:20:34;3.05;;;2.10;;
52396;SDS011;38322;53.108;6.308;2024-03-29T20:23:01;4.35;;;2.33;;
52396;SDS011;38322;53.108;6.308;2024-03-29T20:25:31;8.82;;;2.40;;
52396;SDS011;38322;53.108;6.308;2024-03-29T20:27:57;2.97;;;1.92;;
52396;SDS011;38322;53.108;6.308;2024-03-29T20:30:23;4.95;;;2.40;;
52396;SDS011;38322;53.108;6.308;2024-03-29T20:32:50;6.35;;;2.70;;
52396;SDS011;38322;53.108;6.308;2024-03-29T20:35:16;6.65;;;3.53;;
52396;SDS011;38322;53.108;6.308;2024-03-29T20:37:42;3.75;;;2.10;;
52396;SDS011;38322;53.108;6.308;2024-03-29T20:40:09;6.57;;;2.42;;
52396;SDS011;38322;53.108;6.308;2024-03-29T20:42:36;5.28;;;2.90;;
52396;SDS011;38322;53.108;6.308;2024-03-29T20:45:02;4.25;;;3.60;;
52396;SDS011;38322;53.108;6.308;2024-03-29T20:47:34;4.20;;;2.10;;
52396;SDS011;38322;53.108;6.308;2024-03-29T20:50:03;6.82;;;3.13;;
52396;SDS011;38322;53.108;6.308;2024-03-29T20:52:29;5.07;;;2.78;;
52396;SDS011;38322;53.108;6.308;2024-03-29T20:54:56;4.13;;;2.75;;
52396;SDS011;38322;53.108;6.308;2024-03-29T20:57:32;5.03;;;2.72;;